Time;durP1;ratioP1;P1;durP2;ratioP2;P2;SDS_P1;SDS_P2;PMS_P1;PMS_P2;Temp;Humidity;BMP_temperature;BMP_pressure;BME280_temperature;BME280_humidity;BME280_pressure;Samples;Min_cycle;Max_cycle;Signal;HPM_P1;HPM_P2
2021/07/08 00:00:33;;;;;;;6.68;3.13;;;;;;;16.83;70.32;99158.50;3638818;22;20044;-69
2021/07/08 00:03:01;;;;;;;6.25;3.42;;;;;;;16.73;70.29;99155.53;3599485;40;20385;-69
2021/07/08 00:05:32;;;;;;;8.65;3.20;;;;;;;16.74;70.76;99156.38;3599214;40;20040;-69
2021/07/08 00:08:00;;;;;;;7.00;2.83;;;;;;;16.73;70.44;99158.22;3598967;40;20039;-69
2021/07/08 00:10:31;;;;;;;5.10;3.03;;;;;;;16.75;70.36;99144.66;3590111;40;20052;-69
2021/07/08 00:13:01;;;;;;;9.27;3.47;;;;;;;16.78;70.37;99147.69;3589912;40;20064;-69
2021/07/08 00:15:30;;;;;;;4.70;3.03;;;;;;;16.74;70.82;99151.84;3590139;40;20132;-69
2021/07/08 00:17:59;;;;;;;4.03;3.08;;;;;;;16.71;70.81;99148.78;3598903;40;20048;-69
2021/07/08 00:20:28;;;;;;;5.40;2.78;;;;;;;16.74;70.73;99149.19;3590049;40;20044;-69
2021/07/08 00:22:57;;;;;;;4.82;2.78;;;;;;;16.79;70.96;99148.50;3599319;40;20076;-69
2021/07/08 00:25:27;;;;;;;4.65;3.03;;;;;;;16.80;70.28;99145.59;3599793;40;20048;-69
2021/07/08 00:27:56;;;;;;;7.47;3.10;;;;;;;16.85;70.48;99155.59;3600555;40;20074;-69
2021/07/08 00:30:25;;;;;;;4.90;3.00;;;;;;;16.88;70.53;99147.16;3599871;40;20311;-69
2021/07/08 00:32:53;;;;;;;6.40;3.33;;;;;;;16.95;69.99;99152.44;3599657;40;20051;-69
2021/07/08 00:35:23;;;;;;;6.00;2.53;;;;;;;16.88;69.85;99155.16;3598658;39;20534;-69
2021/07/08 00:37:51;;;;;;;4.05;2.72;;;;;;;16.84;70.20;99154.78;3598893;40;20055;-69
2021/07/08 00:40:20;;;;;;;4.35;2.67;;;;;;;16.82;69.98;99156.09;3599236;40;20308;-69
2021/07/08 00:42:48;;;;;;;6.63;2.80;;;;;;;16.72;69.99;99161.09;3599238;40;20073;-69
2021/07/08 00:45:19;;;;;;;6.43;3.55;;;;;;;16.59;69.60;99159.38;3602120;40;20067;-69
2021/07/08 00:47:47;;;;;;;7.10;3.60;;;;;;;16.44;70.22;99157.06;3600444;40;20044;-69
2021/07/08 00:50:17;;;;;;;6.07;3.08;;;;;;;16.36;70.16;99149.38;3600140;40;20034;-69
2021/07/08 00:52:45;;;;;;;10.18;3.58;;;;;;;16.26;70.70;99146.41;3601199;40;20063;-69
2021/07/08 00:55:14;;;;;;;5.93;3.00;;;;;;;16.21;70.93;99149.75;3602129;40;20054;-69
2021/07/08 00:57:52;;;;;;;6.40;2.90;;;;;;;16.25;71.14;99150.13;3590163;40;20161;-69
2021/07/08 01:00:21;;;;;;;9.73;3.33;;;;;;;16.30;71.12;99151.06;3599359;40;20037;-69
2021/07/08 01:02:50;;;;;;;6.32;3.78;;;;;;;16.30;71.18;99155.59;3599548;40;20052;-69
2021/07/08 01:05:21;;;;;;;5.05;2.95;;;;;;;16.29;71.25;99144.13;3590211;40;20059;-69
2021/07/08 01:07:49;;;;;;;6.53;3.28;;;;;;;16.28;71.11;99145.13;3599098;40;20048;-69
2021/07/08 01:10:17;;;;;;;5.63;2.88;;;;;;;16.38;71.09;99139.31;3599057;40;20316;-69
2021/07/08 01:12:46;;;;;;;7.20;2.90;;;;;;;16.47;70.89;99131.81;3599012;40;20132;-69
2021/07/08 01:15:15;;;;;;;6.50;2.70;;;;;;;16.48;70.77;99144.13;3589642;40;20059;-69
2021/07/08 01:17:44;;;;;;;7.40;3.05;;;;;;;16.53;70.50;99142.44;3588862;40;20040;-69
2021/07/08 01:20:16;;;;;;;6.88;3.25;;;;;;;16.50;70.85;99142.88;3589387;40;20305;-69
2021/07/08 01:22:48;;;;;;;5.03;2.92;;;;;;;16.64;70.61;99148.84;3598670;40;20072;-69
2021/07/08 01:25:18;;;;;;;6.60;3.42;;;;;;;16.63;70.29;99138.41;3589417;40;20337;-69
2021/07/08 01:27:46;;;;;;;6.53;3.08;;;;;;;16.55;70.40;99139.53;3598907;40;20036;-69
2021/07/08 01:30:15;;;;;;;5.88;3.50;;;;;;;16.56;70.73;99146.47;3598664;40;20326;-69
2021/07/08 01:32:43;;;;;;;5.93;2.92;;;;;;;16.63;70.56;99141.91;3589471;40;20325;-69
2021/07/08 01:35:12;;;;;;;4.30;2.95;;;;;;;16.69;70.78;99134.84;3598978;40;20059;-69
2021/07/08 01:37:40;;;;;;;7.70;3.40;;;;;;;16.59;70.28;99141.53;3588965;40;20067;-69
2021/07/08 01:40:12;;;;;;;9.50;3.80;;;;;;;16.47;70.96;99137.97;3598804;40;20415;-69
2021/07/08 01:42:40;;;;;;;7.75;3.28;;;;;;;16.43;70.91;99133.28;3588998;40;20043;-69
2021/07/08 01:45:09;;;;;;;7.32;3.22;;;;;;;16.38;70.64;99138.50;3589169;40;20393;-69
2021/07/08 01:47:37;;;;;;;7.18;3.28;;;;;;;16.27;70.88;99132.84;3590353;40;20052;-69
2021/07/08 01:50:06;;;;;;;5.82;2.97;;;;;;;16.16;71.44;99143.41;3600271;40;20032;-69
2021/07/08 01:52:34;;;;;;;7.28;3.03;;;;;;;16.06;71.22;99147.41;3590860;40;20398;-69
2021/07/08 01:55:02;;;;;;;4.95;2.85;;;;;;;15.98;71.35;99147.69;3600279;40;20407;-69
2021/07/08 01:57:31;;;;;;;4.28;2.80;;;;;;;16.03;71.43;99144.38;3590500;40;20044;-69
2021/07/08 01:59:59;;;;;;;7.15;3.00;;;;;;;16.13;71.37;99147.34;3599918;40;20075;-69
2021/07/08 02:02:27;;;;;;;4.63;2.80;;;;;;;16.07;71.41;99146.38;3590873;40;20097;-69
2021/07/08 02:04:57;;;;;;;6.63;2.78;;;;;;;16.04;71.21;99136.16;3590866;40;20378;-69
2021/07/08 02:07:27;;;;;;;4.65;3.00;;;;;;;15.96;71.24;99141.78;3590302;40;20444;-69
2021/07/08 02:09:55;;;;;;;7.55;3.20;;;;;;;15.88;71.15;99130.53;3599838;40;20059;-70
2021/07/08 02:12:23;;;;;;;4.45;2.58;;;;;;;15.88;71.55;99122.56;3590937;40;20056;-70
2021/07/08 02:14:52;;;;;;;7.30;3.17;;;;;;;15.91;71.78;99114.94;3599887;40;20076;-70
2021/07/08 02:17:19;;;;;;;6.05;2.50;;;;;;;15.94;71.62;99111.84;3590291;40;20052;-70
2021/07/08 02:19:47;;;;;;;4.97;2.72;;;;;;;15.96;71.37;99109.78;3590670;40;20088;-70
2021/07/08 02:22:15;;;;;;;6.30;3.25;;;;;;;15.98;71.46;99105.03;3590737;40;20051;-70
2021/07/08 02:24:43;;;;;;;7.45;2.83;;;;;;;15.99;71.74;99108.50;3599969;40;20032;-70
2021/07/08 02:27:11;;;;;;;3.17;2.67;;;;;;;16.06;71.53;99110.06;3599869;40;20441;-70
2021/07/08 02:29:39;;;;;;;3.53;2.95;;;;;;;16.13;71.33;99103.88;3590352;40;20080;-70
2021/07/08 02:32:09;;;;;;;5.70;2.58;;;;;;;16.13;71.40;99107.34;3590314;40;20040;-70
2021/07/08 02:34:37;;;;;;;3.35;2.75;;;;;;;16.17;71.23;99105.88;3599820;40;20409;-70
2021/07/08 02:37:05;;;;;;;3.53;3.15;;;;;;;16.15;71.20;99107.94;3599567;40;20160;-70
2021/07/08 02:39:33;;;;;;;4.30;3.10;;;;;;;16.20;71.55;99102.75;3599558;40;20063;-70
2021/07/08 02:42:01;;;;;;;6.55;3.25;;;;;;;16.26;71.10;99109.06;3599694;40;20048;-70
2021/07/08 02:44:29;;;;;;;7.22;3.20;;;;;;;16.32;71.44;99100.97;3599859;40;20056;-71
2021/07/08 02:46:57;;;;;;;7.35;3.20;;;;;;;16.37;71.01;99112.81;3590306;40;20088;-70
2021/07/08 02:49:26;;;;;;;4.38;3.08;;;;;;;16.30;71.06;99112.91;3599500;40;20283;-70
2021/07/08 02:51:54;;;;;;;5.90;3.10;;;;;;;16.27;71.31;99121.34;3590330;40;20080;-71
2021/07/08 02:54:22;;;;;;;7.03;3.45;;;;;;;16.22;71.12;99126.53;3589957;40;20051;-70
2021/07/08 02:56:49;;;;;;;4.72;3.55;;;;;;;16.19;71.70;99129.66;3600153;40;20055;-70
2021/07/08 02:59:17;;;;;;;7.22;4.07;;;;;;;16.15;71.78;99123.94;3599250;39;20395;-70
2021/07/08 03:01:45;;;;;;;7.35;3.20;;;;;;;16.14;71.66;99111.66;3590029;40;20055;-70
2021/07/08 03:04:13;;;;;;;7.93;3.30;;;;;;;16.07;71.96;99122.38;3599493;40;20055;-70
2021/07/08 03:06:42;;;;;;;4.82;3.25;;;;;;;16.06;72.34;99117.28;3599208;40;20044;-70
2021/07/08 03:09:09;;;;;;;9.27;3.25;;;;;;;16.14;72.30;99130.31;3599483;40;20084;-70
2021/07/08 03:11:37;;;;;;;5.97;3.22;;;;;;;16.22;71.92;99140.69;3599348;40;20044;-71
2021/07/08 03:14:05;;;;;;;8.50;3.50;;;;;;;16.26;71.90;99139.22;3599700;40;20052;-70
2021/07/08 03:16:33;;;;;;;5.78;3.53;;;;;;;16.29;72.03;99151.31;3599524;40;20298;-70
2021/07/08 03:19:01;;;;;;;6.40;3.80;;;;;;;16.26;71.71;99143.75;3599913;40;20055;-70
2021/07/08 03:21:29;;;;;;;7.15;4.20;;;;;;;16.18;72.18;99141.34;3599564;40;20321;-70
2021/07/08 03:23:58;;;;;;;10.57;4.10;;;;;;;16.08;71.97;99150.69;3599702;40;20356;-70
2021/07/08 03:26:25;;;;;;;4.40;3.20;;;;;;;15.99;72.49;99156.50;3590105;40;20105;-70
2021/07/08 03:28:53;;;;;;;8.05;3.53;;;;;;;15.96;72.82;99151.59;3590277;40;20328;-70
2021/07/08 03:31:22;;;;;;;6.50;3.55;;;;;;;15.92;72.99;99156.56;3590029;40;20055;-70
2021/07/08 03:33:50;;;;;;;6.28;3.80;;;;;;;15.95;72.98;99156.13;3590384;40;20052;-72
2021/07/08 03:36:18;;;;;;;8.55;4.03;;;;;;;15.95;73.37;99150.78;3602060;40;20400;-70
2021/07/08 03:38:46;;;;;;;6.97;3.80;;;;;;;15.97;73.58;99155.91;3602262;40;20036;-70
2021/07/08 03:41:15;;;;;;;7.88;5.20;;;;;;;16.05;72.90;99155.66;3601861;40;20420;-70
2021/07/08 03:43:43;;;;;;;6.97;4.22;;;;;;;16.01;72.88;99147.25;3592771;40;20048;-70
2021/07/08 03:46:11;;;;;;;8.02;3.65;;;;;;;16.02;72.73;99140.88;3602199;40;20088;-70
2021/07/08 03:48:39;;;;;;;6.82;4.10;;;;;;;15.98;72.90;99141.53;3592805;40;20044;-72
2021/07/08 03:51:06;;;;;;;5.10;3.65;;;;;;;16.01;73.22;99135.78;3592728;40;20047;-70
2021/07/08 03:53:34;;;;;;;5.97;3.40;;;;;;;15.98;73.49;99134.38;3601954;40;20339;-70
2021/07/08 03:56:02;;;;;;;7.22;4.70;;;;;;;16.09;73.20;99122.97;3601975;40;20047;-71
2021/07/08 03:58:31;;;;;;;6.95;4.40;;;;;;;16.20;73.09;99118.75;3602185;40;20044;-71
2021/07/08 04:00:59;;;;;;;7.95;4.50;;;;;;;16.31;72.38;99114.53;3602340;40;20084;-70
2021/07/08 04:03:28;;;;;;;5.45;3.53;;;;;;;16.18;72.29;99109.34;3602224;40;20051;-71
2021/07/08 04:05:56;;;;;;;6.75;3.97;;;;;;;16.02;72.55;99113.41;3590997;40;20439;-70
2021/07/08 04:08:23;;;;;;;6.47;4.30;;;;;;;15.95;73.47;99117.97;3590432;40;20047;-68
2021/07/08 04:10:51;;;;;;;5.10;3.50;;;;;;;16.03;73.13;99128.38;3590453;40;20063;-68
2021/07/08 04:13:22;;;;;;;5.25;3.40;;;;;;;16.05;73.50;99124.47;3599238;40;20078;-69
2021/07/08 04:15:52;;;;;;;5.63;3.80;;;;;;;16.13;73.05;99123.34;3599082;40;20044;-69
2021/07/08 04:18:21;;;;;;;7.97;3.70;;;;;;;16.10;72.88;99123.78;3599065;40;20124;-69
2021/07/08 04:20:49;;;;;;;5.13;3.40;;;;;;;16.06;72.88;99127.94;3599023;40;20092;-70
2021/07/08 04:23:17;;;;;;;5.47;3.78;;;;;;;16.07;72.87;99127.69;3589644;40;20080;-70
2021/07/08 04:25:45;;;;;;;6.43;3.30;;;;;;;16.18;72.87;99134.16;3598899;40;20052;-69
2021/07/08 04:28:13;;;;;;;4.30;3.47;;;;;;;16.27;72.63;99142.69;3598856;40;20057;-69
2021/07/08 04:30:43;;;;;;;6.03;4.40;;;;;;;16.27;72.38;99143.50;3589772;40;20317;-69
2021/07/08 04:33:18;;;;;;;4.30;3.50;;;;;;;16.24;72.46;99137.78;3590149;40;20147;-69
2021/07/08 04:35:46;;;;;;;5.90;4.47;;;;;;;16.34;72.35;99140.78;3589918;40;20433;-69
2021/07/08 04:38:15;;;;;;;9.25;4.18;;;;;;;16.36;72.04;99144.03;3599150;40;20099;-69
2021/07/08 04:40:43;;;;;;;7.70;5.30;;;;;;;16.40;72.20;99145.22;3599105;40;20087;-69
2021/07/08 04:43:12;;;;;;;7.45;4.70;;;;;;;16.52;72.41;99146.09;3599366;40;20047;-69
2021/07/08 04:45:41;;;;;;;9.63;4.32;;;;;;;16.64;71.63;99145.38;3601671;40;20044;-70
2021/07/08 04:48:09;;;;;;;7.00;4.93;;;;;;;16.77;71.10;99147.91;3592202;40;20048;-69
2021/07/08 04:50:38;;;;;;;6.00;3.72;;;;;;;16.77;70.95;99147.91;3601735;40;20076;-70
2021/07/08 04:53:06;;;;;;;5.97;3.97;;;;;;;16.73;71.31;99136.84;3602831;40;20081;-70
2021/07/08 04:55:34;;;;;;;8.35;4.45;;;;;;;16.76;71.04;99132.94;3592031;40;20088;-69
2021/07/08 04:58:01;;;;;;;6.97;4.13;;;;;;;16.73;71.10;99141.38;3591669;40;20020;-69
2021/07/08 05:00:29;;;;;;;6.13;5.15;;;;;;;16.72;71.38;99145.06;3592115;40;20056;-70
2021/07/08 05:02:57;;;;;;;5.72;3.78;;;;;;;16.71;71.50;99144.25;3593158;40;20044;-69
2021/07/08 05:05:25;;;;;;;8.60;4.57;;;;;;;16.86;71.52;99143.91;3602985;40;20044;-69
2021/07/08 05:07:55;;;;;;;4.20;2.90;;;;;;;16.96;70.98;99148.72;3591079;40;20353;-70
2021/07/08 05:10:23;;;;;;;5.50;4.50;;;;;;;17.14;70.84;99148.66;3589385;40;20049;-69
2021/07/08 05:12:51;;;;;;;5.95;3.55;;;;;;;17.19;70.20;99143.47;3590478;40;20056;-70
2021/07/08 05:15:20;;;;;;;10.95;4.43;;;;;;;17.06;69.97;99143.63;3599556;40;20052;-70
2021/07/08 05:17:49;;;;;;;6.07;3.80;;;;;;;17.20;70.20;99136.25;3599068;40;20390;-70
2021/07/08 05:20:23;;;;;;;7.00;4.00;;;;;;;17.35;69.81;99139.34;3598645;39;20040;-69
2021/07/08 05:22:56;;;;;;;9.50;3.88;;;;;;;17.40;69.33;99141.31;3600145;40;20124;-69
2021/07/08 05:25:26;;;;;;;7.40;4.47;;;;;;;17.40;69.33;99138.66;3591579;40;20075;-69
2021/07/08 05:27:54;;;;;;;5.50;3.80;;;;;;;17.38;69.59;99146.06;3600359;40;20052;-70
2021/07/08 05:30:22;;;;;;;6.45;3.78;;;;;;;17.34;69.62;99143.84;3600446;40;20072;-70
2021/07/08 05:32:50;;;;;;;6.57;3.83;;;;;;;17.41;69.13;99138.41;3600256;40;20056;-70
2021/07/08 05:35:19;;;;;;;5.10;4.00;;;;;;;17.51;68.96;99141.34;3600095;40;20052;-70
2021/07/08 05:37:48;;;;;;;9.40;3.92;;;;;;;17.49;69.33;99147.97;3590923;40;20051;-71
2021/07/08 05:40:17;;;;;;;11.00;4.20;;;;;;;17.57;69.33;99142.28;3601915;40;20378;-71
2021/07/08 05:42:46;;;;;;;11.50;4.40;;;;;;;17.65;69.03;99149.16;3596649;40;20050;-71
2021/07/08 05:45:14;;;;;;;6.78;4.13;;;;;;;17.63;68.74;99153.91;3596486;40;20046;-70
2021/07/08 05:47:42;;;;;;;11.40;4.63;;;;;;;17.64;68.49;99161.72;3605180;40;20047;-71
2021/07/08 05:50:11;;;;;;;10.43;4.72;;;;;;;17.66;68.15;99164.16;3605383;40;20059;-69
2021/07/08 05:52:38;;;;;;;7.55;4.93;;;;;;;17.72;68.44;99168.59;3595037;40;20324;-71
2021/07/08 05:55:07;;;;;;;7.20;4.22;;;;;;;17.76;68.12;99169.78;3600709;40;20106;-69
2021/07/08 05:57:35;;;;;;;6.57;3.85;;;;;;;17.78;68.37;99175.72;3594008;40;20062;-69
2021/07/08 06:00:12;;;;;;;5.10;4.10;;;;;;;17.76;68.05;99177.81;3603360;40;20080;-70
2021/07/08 06:02:42;;;;;;;7.63;4.22;;;;;;;17.70;67.87;99179.50;3555057;40;20053;-73
2021/07/08 06:05:10;;;;;;;7.07;4.78;;;;;;;17.74;67.80;99180.69;3555291;40;20042;-72
2021/07/08 06:07:38;;;;;;;5.80;3.97;;;;;;;17.72;68.04;99190.78;3562647;40;20086;-72
2021/07/08 06:10:08;;;;;;;5.30;4.07;;;;;;;17.80;68.19;99193.16;3555368;40;20054;-72
2021/07/08 06:12:36;;;;;;;6.20;4.22;;;;;;;17.91;67.55;99191.53;3555388;40;20086;-73
2021/07/08 06:15:05;;;;;;;12.98;4.50;;;;;;;17.93;67.55;99185.97;3555437;40;20057;-72
2021/07/08 06:17:33;;;;;;;6.65;4.20;;;;;;;17.85;67.32;99194.34;3554254;40;20078;-73
2021/07/08 06:20:04;;;;;;;4.60;3.78;;;;;;;17.80;67.32;99192.34;3553792;40;20062;-73
2021/07/08 06:22:32;;;;;;;9.50;5.03;;;;;;;17.78;67.23;99195.25;3554738;40;20201;-72
2021/07/08 06:25:00;;;;;;;7.20;3.90;;;;;;;17.73;67.70;99194.28;3555152;40;20423;-74
2021/07/08 06:27:28;;;;;;;8.68;4.47;;;;;;;17.76;67.66;99199.22;3555126;40;20042;-73
2021/07/08 06:29:55;;;;;;;9.70;5.28;;;;;;;17.74;67.63;99199.41;3562960;40;20058;-73
2021/07/08 06:32:23;;;;;;;6.82;4.25;;;;;;;17.74;68.28;99203.91;3554535;40;20442;-73
2021/07/08 06:34:51;;;;;;;9.52;4.95;;;;;;;17.79;68.00;99207.56;3555207;40;20081;-73
2021/07/08 06:37:20;;;;;;;13.80;6.25;;;;;;;17.79;67.44;99204.88;3555169;40;20034;-73
2021/07/08 06:39:53;;;;;;;9.07;4.97;;;;;;;17.81;67.84;99212.69;3555078;40;20172;-72
2021/07/08 06:42:21;;;;;;;10.25;5.85;;;;;;;17.86;68.01;99206.66;3554082;40;20074;-72
2021/07/08 06:44:49;;;;;;;7.57;4.75;;;;;;;17.93;67.70;99210.84;3554373;40;20066;-71
2021/07/08 06:47:18;;;;;;;9.45;4.30;;;;;;;18.00;67.49;99222.28;3554638;40;20342;-73
2021/07/08 06:49:47;;;;;;;7.03;4.28;;;;;;;17.99;67.14;99217.13;3555562;40;20373;-73
2021/07/08 06:52:16;;;;;;;7.03;4.13;;;;;;;18.04;67.14;99214.56;3554750;40;20046;-72
2021/07/08 06:54:45;;;;;;;10.65;4.30;;;;;;;18.17;66.93;99201.00;3554899;40;20336;-73
2021/07/08 06:57:14;;;;;;;6.05;4.60;;;;;;;18.38;66.80;99194.25;3554942;40;20054;-72
2021/07/08 06:59:42;;;;;;;9.30;3.88;;;;;;;18.63;66.08;99193.16;3554864;40;20053;-73
2021/07/08 07:02:09;;;;;;;4.15;3.75;;;;;;;18.83;66.03;99190.13;3555151;40;20053;-74
2021/07/08 07:04:37;;;;;;;6.45;3.97;;;;;;;19.14;65.33;99176.28;3554679;40;20061;-72
2021/07/08 07:07:05;;;;;;;6.25;3.80;;;;;;;19.39;64.46;99180.47;3554847;40;20649;-74
2021/07/08 07:09:33;;;;;;;5.35;4.07;;;;;;;19.56;64.36;99181.34;3555418;40;20054;-73
2021/07/08 07:12:02;;;;;;;10.30;4.60;;;;;;;19.78;63.95;99182.28;3553719;40;20400;-73
2021/07/08 07:14:30;;;;;;;8.70;4.90;;;;;;;19.81;63.67;99185.53;3562788;40;20066;-72
2021/07/08 07:16:58;;;;;;;7.18;4.32;;;;;;;19.86;63.53;99186.44;3554696;40;20384;-73
2021/07/08 07:19:26;;;;;;;8.18;4.78;;;;;;;19.93;63.16;99189.75;3562203;40;20115;-73
2021/07/08 07:21:54;;;;;;;6.65;4.47;;;;;;;19.92;62.79;99187.31;3554198;40;20054;-73
2021/07/08 07:24:22;;;;;;;6.57;4.60;;;;;;;19.86;63.06;99188.28;3553775;40;20049;-71
2021/07/08 07:26:50;;;;;;;9.35;5.55;;;;;;;19.87;63.53;99187.22;3554021;40;20050;-74
2021/07/08 07:29:19;;;;;;;8.88;5.22;;;;;;;19.94;63.18;99188.69;3543305;40;20058;-74
2021/07/08 07:31:47;;;;;;;9.82;5.47;;;;;;;20.02;63.41;99190.97;3543680;40;20057;-73
2021/07/08 07:34:15;;;;;;;5.88;4.38;;;;;;;20.13;62.82;99186.59;3550610;40;20109;-73
2021/07/08 07:36:43;;;;;;;8.05;4.93;;;;;;;20.21;62.47;99194.22;3540964;40;20063;-74
2021/07/08 07:39:11;;;;;;;7.30;4.78;;;;;;;20.24;62.68;99188.34;3543974;40;20043;-71
2021/07/08 07:41:38;;;;;;;6.30;3.72;;;;;;;20.29;62.95;99190.31;3542734;40;20062;-71
2021/07/08 07:44:06;;;;;;;8.75;5.35;;;;;;;20.31;62.55;99190.06;3543453;40;20043;-71
2021/07/08 07:46:36;;;;;;;9.55;4.72;;;;;;;20.21;62.60;99201.47;3543004;40;20054;-72
2021/07/08 07:49:04;;;;;;;6.38;4.35;;;;;;;20.18;63.35;99204.63;3543610;40;20317;-71
2021/07/08 07:51:31;;;;;;;6.38;4.15;;;;;;;20.18;63.14;99210.00;3543155;40;20098;-71
2021/07/08 07:53:59;;;;;;;8.27;5.22;;;;;;;20.17;63.20;99205.69;3543728;40;20689;-71
2021/07/08 07:56:27;;;;;;;8.48;4.97;;;;;;;20.19;63.40;99206.25;3543079;40;20098;-71
2021/07/08 07:58:55;;;;;;;6.30;4.72;;;;;;;20.25;63.50;99218.72;3543440;40;20042;-71
2021/07/08 08:01:22;;;;;;;8.95;4.78;;;;;;;20.28;63.49;99237.00;3552088;40;20050;-71
2021/07/08 08:03:54;;;;;;;6.35;4.40;;;;;;;20.33;63.90;99237.09;3554925;40;20061;-71
2021/07/08 08:09:07;;;;;;;8.15;3.20;;;;;;;20.37;63.59;99238.22;3562143;40;20049;-71
2021/07/08 08:11:35;;;;;;;6.15;3.05;;;;;;;20.41;63.92;99236.69;3561957;40;20058;-71
2021/07/08 08:14:03;;;;;;;5.53;3.20;;;;;;;20.48;63.87;99239.16;3554641;40;20077;-71
2021/07/08 08:16:33;;;;;;;6.57;2.92;;;;;;;20.44;64.15;99246.09;3554597;40;20046;-71
2021/07/08 08:19:03;;;;;;;5.32;3.10;;;;;;;20.42;64.27;99240.16;3554751;40;20053;-71
2021/07/08 08:21:31;;;;;;;5.10;3.10;;;;;;;20.38;64.81;99247.09;3562386;40;20170;-71
2021/07/08 08:23:58;;;;;;;6.82;2.95;;;;;;;20.29;64.55;99247.50;3554532;40;20058;-71
2021/07/08 08:26:27;;;;;;;4.20;2.92;;;;;;;20.25;65.86;99256.28;3554106;40;20431;-71
2021/07/08 08:28:55;;;;;;;5.38;2.80;;;;;;;20.22;65.58;99254.09;3554600;40;20042;-71
2021/07/08 08:31:23;;;;;;;4.72;3.13;;;;;;;20.21;65.89;99263.22;3554071;40;20079;-71
2021/07/08 08:33:50;;;;;;;3.50;3.05;;;;;;;20.18;66.27;99264.50;3553562;40;20053;-71
2021/07/08 08:36:19;;;;;;;4.43;2.88;;;;;;;20.26;66.43;99256.03;3553582;40;20365;-71
2021/07/08 08:38:47;;;;;;;6.80;3.63;;;;;;;20.31;66.95;99249.94;3554146;40;20050;-71
2021/07/08 08:41:15;;;;;;;6.57;3.38;;;;;;;20.32;67.16;99248.06;3553994;40;20053;-71
2021/07/08 08:43:43;;;;;;;2.72;2.40;;;;;;;20.29;67.22;99252.06;3553747;40;20046;-71
2021/07/08 08:46:12;;;;;;;3.83;3.30;;;;;;;20.28;67.72;99256.59;3553005;40;20053;-71
2021/07/08 08:48:40;;;;;;;4.30;2.72;;;;;;;20.35;67.49;99261.81;3553658;40;20057;-71
2021/07/08 08:51:07;;;;;;;6.10;3.13;;;;;;;20.40;67.91;99263.75;3553393;40;20100;-72
2021/07/08 08:53:37;;;;;;;4.15;3.00;;;;;;;20.41;68.23;99270.75;3554457;40;20050;-71
2021/07/08 08:56:05;;;;;;;5.55;3.00;;;;;;;20.45;68.21;99269.19;3553528;40;20059;-73
2021/07/08 08:58:33;;;;;;;3.85;2.67;;;;;;;20.49;68.03;99273.88;3556046;40;20058;-71
2021/07/08 09:01:03;;;;;;;4.70;2.90;;;;;;;20.46;69.06;99271.66;3555790;40;20105;-71
2021/07/08 09:03:34;;;;;;;4.38;3.35;;;;;;;20.50;69.27;99267.44;3554939;40;20053;-71
2021/07/08 09:06:06;;;;;;;4.05;3.33;;;;;;;20.55;69.37;99264.03;3553755;40;20078;-73
2021/07/08 09:08:35;;;;;;;3.17;2.85;;;;;;;20.55;69.60;99265.91;3554432;40;20050;-72
2021/07/08 09:11:09;;;;;;;4.72;3.03;;;;;;;20.54;69.52;99257.03;3553970;40;20380;-71
2021/07/08 09:13:56;;;;;;;3.83;2.92;;;;;;;20.53;69.78;99258.06;3553994;40;20054;-71
2021/07/08 09:16:30;;;;;;;4.47;2.83;;;;;;;20.44;69.77;99252.28;3553862;40;20058;-71
2021/07/08 09:19:10;;;;;;;3.38;2.83;;;;;;;20.41;70.28;99254.63;3553900;40;20074;-71
2021/07/08 09:21:41;;;;;;;4.00;2.65;;;;;;;20.38;69.62;99255.16;3553947;40;20054;-71
2021/07/08 09:24:13;;;;;;;3.72;2.80;;;;;;;20.32;70.25;99253.44;3553881;40;20058;-71
2021/07/08 09:26:52;;;;;;;3.75;2.50;;;;;;;20.14;71.21;99247.25;3553687;40;20054;-70
2021/07/08 09:29:23;;;;;;;4.55;2.70;;;;;;;20.18;71.34;99248.41;3553836;40;20046;-70
2021/07/08 09:31:53;;;;;;;3.42;2.70;;;;;;;20.21;71.83;99247.91;3554279;40;20383;-70
2021/07/08 09:34:24;;;;;;;4.38;3.10;;;;;;;20.25;71.81;99258.97;3561369;40;20089;-71
2021/07/08 09:37:05;;;;;;;4.05;2.75;;;;;;;20.28;71.96;99266.53;3552707;40;20046;-70
2021/07/08 09:39:33;;;;;;;5.20;3.13;;;;;;;20.25;72.55;99278.56;3554397;40;20050;-70
2021/07/08 09:42:03;;;;;;;4.90;2.78;;;;;;;20.04;72.76;99296.22;3553727;40;20050;-70
2021/07/08 09:44:32;;;;;;;5.82;3.00;;;;;;;19.90;73.42;99304.81;3554248;40;20062;-69
2021/07/08 09:47:00;;;;;;;3.15;2.80;;;;;;;19.70;74.04;99302.56;3552816;40;20090;-69
2021/07/08 09:49:29;;;;;;;3.95;2.40;;;;;;;19.59;73.98;99304.19;3553161;40;20078;-69
2021/07/08 09:51:57;;;;;;;6.75;2.55;;;;;;;19.49;74.63;99307.50;3552364;40;20054;-69
2021/07/08 09:54:45;;;;;;;4.45;2.58;;;;;;;19.45;74.65;99319.75;3552666;40;20319;-70
2021/07/08 09:57:33;;;;;;;4.20;2.50;;;;;;;19.41;74.79;99321.28;3553247;40;20090;-70
2021/07/08 10:00:01;;;;;;;4.55;2.70;;;;;;;19.35;74.20;99329.44;3552352;40;20566;-70
2021/07/08 10:02:31;;;;;;;5.13;2.17;;;;;;;19.27;74.34;99328.78;3552492;40;20046;-70
2021/07/08 10:04:59;;;;;;;5.15;2.95;;;;;;;19.27;74.51;99326.09;3552656;40;20030;-70
2021/07/08 10:07:29;;;;;;;2.97;2.42;;;;;;;19.20;74.35;99325.41;3553283;40;20042;-70
2021/07/08 10:09:57;;;;;;;3.63;2.50;;;;;;;19.20;74.49;99332.63;3554850;40;20030;-72
2021/07/08 10:12:26;;;;;;;2.63;2.22;;;;;;;19.14;74.87;99329.00;3562777;40;20030;-71
2021/07/08 10:14:58;;;;;;;3.17;2.35;;;;;;;19.11;74.84;99334.06;3562659;40;20030;-71
2021/07/08 10:17:30;;;;;;;3.97;2.90;;;;;;;19.09;74.95;99323.56;3555279;40;20042;-76
2021/07/08 10:19:58;;;;;;;2.35;2.05;;;;;;;19.10;74.66;99314.47;3555108;40;20077;-71
2021/07/08 10:22:26;;;;;;;3.45;2.78;;;;;;;19.08;75.12;99318.44;3555239;40;20062;-71
2021/07/08 10:24:54;;;;;;;2.35;2.15;;;;;;;19.01;75.06;99318.56;3555367;40;20049;-71
2021/07/08 10:27:23;;;;;;;2.53;2.33;;;;;;;18.97;74.91;99314.72;3562314;40;20058;-72
2021/07/08 10:29:53;;;;;;;3.67;3.10;;;;;;;18.98;75.48;99324.38;3561884;40;20050;-70
2021/07/08 10:32:23;;;;;;;2.33;2.13;;;;;;;18.94;74.99;99318.69;3554046;40;20051;-73
2021/07/08 10:34:51;;;;;;;2.60;1.90;;;;;;;18.92;75.15;99320.78;3553646;40;20296;-74
2021/07/08 10:37:29;;;;;;;3.22;2.22;;;;;;;18.94;75.04;99317.84;3554967;40;20061;-72
2021/07/08 10:40:28;;;;;;;2.83;2.53;;;;;;;18.97;75.04;99318.22;3553318;40;20038;-71
2021/07/08 10:43:09;;;;;;;3.67;2.53;;;;;;;18.98;75.05;99316.34;3553307;40;20034;-71
2021/07/08 10:45:43;;;;;;;3.80;1.98;;;;;;;18.91;74.67;99308.44;3562351;40;20138;-72
2021/07/08 10:48:15;;;;;;;3.17;1.98;;;;;;;18.75;74.39;99303.78;3554648;40;20071;-73
2021/07/08 10:50:44;;;;;;;2.35;2.15;;;;;;;18.69;74.96;99305.50;3555513;40;20136;-73
2021/07/08 10:53:18;;;;;;;3.13;2.25;;;;;;;18.65;74.70;99295.47;3555502;40;20058;-74
2021/07/08 10:55:48;;;;;;;3.50;2.42;;;;;;;18.63;75.15;99289.56;3555410;40;20058;-74
2021/07/08 10:58:38;;;;;;;3.45;2.58;;;;;;;18.70;75.58;99271.56;3554771;40;20038;-74
2021/07/08 11:01:06;;;;;;;2.70;2.50;;;;;;;18.76;75.28;99267.91;3555346;40;20335;-73
2021/07/08 11:03:41;;;;;;;2.85;2.55;;;;;;;18.89;75.65;99272.22;3555157;40;20092;-71
2021/07/08 11:06:18;;;;;;;5.65;3.20;;;;;;;19.07;75.55;99276.63;3563205;40;20049;-73
2021/07/08 11:09:02;;;;;;;2.72;2.30;;;;;;;19.07;74.75;99280.13;3555594;40;20050;-73
2021/07/08 11:12:00;;;;;;;3.70;2.75;;;;;;;19.06;74.53;99275.78;3555407;40;20038;-73
2021/07/08 11:14:30;;;;;;;2.45;2.25;;;;;;;19.01;74.85;99271.13;3562925;40;20043;-73
2021/07/08 11:17:00;;;;;;;3.20;2.67;;;;;;;19.05;74.96;99266.13;3562809;40;20306;-73
2021/07/08 11:19:36;;;;;;;3.58;3.03;;;;;;;19.17;75.10;99277.63;3554056;40;20357;-73
2021/07/08 11:22:07;;;;;;;4.57;3.30;;;;;;;19.26;75.21;99278.88;3554957;40;20270;-73
2021/07/08 11:24:47;;;;;;;5.88;3.35;;;;;;;19.36;75.58;99277.47;3556412;40;20061;-74
2021/07/08 11:27:17;;;;;;;4.53;2.67;;;;;;;19.43;75.10;99267.41;3555766;40;20034;-75
2021/07/08 11:29:47;;;;;;;4.90;3.00;;;;;;;19.46;74.92;99270.44;3555474;40;20023;-74
2021/07/08 11:32:24;;;;;;;4.07;2.88;;;;;;;19.48;74.58;99262.16;3555808;40;20058;-75
2021/07/08 11:34:58;;;;;;;3.42;2.70;;;;;;;19.43;74.71;99270.09;3555783;40;20056;-74
2021/07/08 11:37:29;;;;;;;2.90;2.53;;;;;;;19.46;74.58;99269.63;3556099;40;20066;-75
2021/07/08 11:39:59;;;;;;;3.78;2.05;;;;;;;19.50;74.49;99274.25;3555297;40;20392;-75
2021/07/08 11:42:30;;;;;;;2.83;2.50;;;;;;;19.62;74.24;99278.81;3554403;40;20037;-75
2021/07/08 11:45:01;;;;;;;4.78;2.55;;;;;;;19.70;74.03;99268.50;3554771;40;20380;-75
2021/07/08 11:47:39;;;;;;;6.22;3.20;;;;;;;19.82;73.69;99270.31;3555378;40;20030;-74